WTB2JB EGPA-EKVG
Flight info
| Callsign | WTB2JB |
|---|---|
| Flight time | 1h 6m |
| Altitude | 20000 |
| Route | KOKAL DCT VAMLA/M038F200 DCT H6106 DCT ROBUR |
| Aircraft | B58T/L-SDFGRY/C |
Departure
| Time | 2026-04-21 17:29 |
|---|---|
| Airport | Kirkwall Airport (EGPA) |
Arrival
| Time | 2026-04-21 18:36 |
|---|---|
| Airport | Vágar Airport (EKVG) |
| Time | Latitude | Longitude | Altitude | Speed | Heading |
|---|---|---|---|---|---|
| 2026-04-21 17:09 | 58.95430 | -2.90142 | 49 ft | 0 kts | 214° |
| 2026-04-21 17:11 | 58.95430 | -2.90141 | 49 ft | 0 kts | 213° |
| 2026-04-21 17:18 | 58.95431 | -2.90141 | 49 ft | 0 kts | 213° |
| 2026-04-21 17:19 | 58.95431 | -2.90140 | 49 ft | 0 kts | 213° |
| 2026-04-21 17:24 | 58.95434 | -2.90100 | 49 ft | 9 kts | 356° |
| 2026-04-21 17:25 | 58.95455 | -2.90185 | 49 ft | 10 kts | 274° |
| 2026-04-21 17:25 | 58.95494 | -2.90313 | 49 ft | 15 kts | 310° |
| 2026-04-21 17:25 | 58.95548 | -2.90437 | 47 ft | 15 kts | 309° |
| 2026-04-21 17:25 | 58.95570 | -2.90720 | 45 ft | 22 kts | 275° |
| 2026-04-21 17:26 | 58.95544 | -2.90979 | 46 ft | 21 kts | 242° |
| 2026-04-21 17:26 | 58.95545 | -2.91123 | 47 ft | 1 kts | 310° |
| 2026-04-21 17:26 | 58.95603 | -2.91182 | 47 ft | 17 kts | 335° |
| 2026-04-21 17:26 | 58.95680 | -2.91247 | 49 ft | 0 kts | 339° |
| 2026-04-21 17:27 | 58.95680 | -2.91246 | 49 ft | 0 kts | 339° |
| 2026-04-21 17:28 | 58.95682 | -2.91248 | 49 ft | 0 kts | 338° |
| 2026-04-21 17:28 | 58.95712 | -2.91272 | 49 ft | 7 kts | 335° |
| 2026-04-21 17:29 | 58.95766 | -2.91293 | 49 ft | 7 kts | 27° |
| 2026-04-21 17:29 | 58.95782 | -2.90917 | 44 ft | 71 kts | 88° |
| 2026-04-21 17:29 | 58.95815 | -2.89594 | 223 ft | 109 kts | 85° |
| 2026-04-21 17:29 | 58.95899 | -2.88138 | 804 ft | 107 kts | 79° |
| 2026-04-21 17:30 | 58.96181 | -2.86783 | 1252 ft | 115 kts | 44° |
| 2026-04-21 17:30 | 58.96959 | -2.86193 | 1580 ft | 131 kts | 6° |
| 2026-04-21 17:30 | 58.97852 | -2.86664 | 2104 ft | 133 kts | 338° |
| 2026-04-21 17:30 | 58.98800 | -2.87297 | 2194 ft | 156 kts | 353° |
| 2026-04-21 17:31 | 58.99778 | -2.88274 | 2467 ft | 167 kts | 316° |
| 2026-04-21 17:31 | 59.00354 | -2.90277 | 2734 ft | 173 kts | 295° |
| 2026-04-21 17:31 | 59.00802 | -2.92459 | 2991 ft | 174 kts | 300° |
| 2026-04-21 17:31 | 59.01457 | -2.94404 | 3249 ft | 172 kts | 314° |
| 2026-04-21 17:32 | 59.02003 | -2.95502 | 3420 ft | 171 kts | 321° |
| 2026-04-21 17:32 | 59.03232 | -2.97337 | 3904 ft | 163 kts | 330° |
| 2026-04-21 17:32 | 59.04187 | -2.98495 | 4270 ft | 161 kts | 334° |
| 2026-04-21 17:32 | 59.05157 | -2.99569 | 4631 ft | 160 kts | 335° |
| 2026-04-21 17:33 | 59.06133 | -3.00603 | 5000 ft | 159 kts | 336° |
| 2026-04-21 17:33 | 59.07110 | -3.01618 | 5379 ft | 159 kts | 336° |
| 2026-04-21 17:33 | 59.08091 | -3.02628 | 5739 ft | 160 kts | 336° |
| 2026-04-21 17:33 | 59.09075 | -3.03640 | 6098 ft | 160 kts | 336° |
| 2026-04-21 17:34 | 59.10048 | -3.04642 | 6458 ft | 161 kts | 336° |
| 2026-04-21 17:34 | 59.11039 | -3.05661 | 6829 ft | 162 kts | 336° |
| 2026-04-21 17:34 | 59.12035 | -3.06684 | 7190 ft | 163 kts | 336° |
| 2026-04-21 17:34 | 59.13043 | -3.07722 | 7545 ft | 164 kts | 336° |
| 2026-04-21 17:35 | 59.14054 | -3.08765 | 7896 ft | 165 kts | 336° |
| 2026-04-21 17:35 | 59.15068 | -3.09811 | 8253 ft | 165 kts | 336° |
| 2026-04-21 17:35 | 59.16087 | -3.10863 | 8617 ft | 166 kts | 336° |
| 2026-04-21 17:35 | 59.17110 | -3.11918 | 8987 ft | 167 kts | 335° |
| 2026-04-21 17:36 | 59.18142 | -3.12984 | 9371 ft | 168 kts | 334° |
| 2026-04-21 17:36 | 59.19176 | -3.14058 | 9731 ft | 169 kts | 334° |
| 2026-04-21 17:36 | 59.20217 | -3.15134 | 10103 ft | 169 kts | 334° |
| 2026-04-21 17:36 | 59.21254 | -3.16210 | 10478 ft | 169 kts | 335° |
| 2026-04-21 17:37 | 59.22297 | -3.17288 | 10823 ft | 169 kts | 335° |
| 2026-04-21 17:37 | 59.23335 | -3.18364 | 11169 ft | 169 kts | 335° |
| 2026-04-21 17:37 | 59.24021 | -3.19077 | 11400 ft | 169 kts | 335° |
| 2026-04-21 17:37 | 59.25410 | -3.20519 | 11872 ft | 169 kts | 334° |
| 2026-04-21 17:38 | 59.26450 | -3.21601 | 12225 ft | 170 kts | 333° |
| 2026-04-21 17:38 | 59.27496 | -3.22692 | 12585 ft | 171 kts | 333° |
| 2026-04-21 17:38 | 59.28192 | -3.23416 | 12826 ft | 171 kts | 334° |
| 2026-04-21 17:38 | 59.29244 | -3.24508 | 13195 ft | 171 kts | 334° |
| 2026-04-21 17:39 | 59.30297 | -3.25605 | 13576 ft | 172 kts | 335° |
| 2026-04-21 17:39 | 59.31352 | -3.26706 | 13958 ft | 172 kts | 334° |
| 2026-04-21 17:39 | 59.32411 | -3.27811 | 14340 ft | 173 kts | 334° |
| 2026-04-21 17:39 | 59.33477 | -3.28925 | 14693 ft | 174 kts | 334° |
| 2026-04-21 17:40 | 59.34546 | -3.30044 | 15032 ft | 175 kts | 333° |
| 2026-04-21 17:40 | 59.35622 | -3.31171 | 15379 ft | 176 kts | 333° |
| 2026-04-21 17:40 | 59.36702 | -3.32297 | 15728 ft | 176 kts | 334° |
| 2026-04-21 17:40 | 59.37786 | -3.33432 | 16085 ft | 177 kts | 334° |
| 2026-04-21 17:41 | 59.38868 | -3.34568 | 16451 ft | 177 kts | 334° |
| 2026-04-21 17:41 | 59.39941 | -3.35693 | 16807 ft | 177 kts | 333° |
| 2026-04-21 17:41 | 59.41031 | -3.36837 | 17180 ft | 178 kts | 333° |
| 2026-04-21 17:41 | 59.42123 | -3.37989 | 17551 ft | 179 kts | 333° |
| 2026-04-21 17:42 | 59.43222 | -3.39148 | 17926 ft | 179 kts | 333° |
| 2026-04-21 17:42 | 59.44325 | -3.40308 | 18312 ft | 180 kts | 333° |
| 2026-04-21 17:42 | 59.45432 | -3.41474 | 18699 ft | 181 kts | 333° |
| 2026-04-21 17:42 | 59.46541 | -3.42642 | 19062 ft | 181 kts | 333° |
| 2026-04-21 17:43 | 59.47653 | -3.43815 | 19406 ft | 182 kts | 333° |
| 2026-04-21 17:43 | 59.48768 | -3.44992 | 19749 ft | 182 kts | 333° |
| 2026-04-21 17:43 | 59.49889 | -3.46176 | 20095 ft | 183 kts | 333° |
| 2026-04-21 17:43 | 59.51015 | -3.47367 | 20445 ft | 184 kts | 333° |
| 2026-04-21 17:44 | 59.52145 | -3.48563 | 20801 ft | 185 kts | 333° |
| 2026-04-21 17:44 | 59.53280 | -3.49765 | 21155 ft | 185 kts | 334° |
| 2026-04-21 17:44 | 59.54425 | -3.50971 | 21376 ft | 194 kts | 334° |
| 2026-04-21 17:44 | 59.55685 | -3.52287 | 21241 ft | 214 kts | 335° |
| 2026-04-21 17:45 | 59.57047 | -3.53715 | 21120 ft | 228 kts | 334° |
| 2026-04-21 17:45 | 59.58478 | -3.55225 | 20992 ft | 238 kts | 334° |
| 2026-04-21 17:45 | 59.59941 | -3.56777 | 20865 ft | 245 kts | 334° |
| 2026-04-21 17:45 | 59.61457 | -3.58390 | 20735 ft | 250 kts | 334° |
| 2026-04-21 17:46 | 59.62993 | -3.60028 | 20672 ft | 251 kts | 334° |
| 2026-04-21 17:46 | 59.64524 | -3.61665 | 20659 ft | 249 kts | 334° |
| 2026-04-21 17:46 | 59.66046 | -3.63295 | 20652 ft | 248 kts | 334° |
| 2026-04-21 17:46 | 59.67565 | -3.64921 | 20654 ft | 248 kts | 334° |
| 2026-04-21 17:47 | 59.69077 | -3.66540 | 20657 ft | 247 kts | 334° |
| 2026-04-21 17:47 | 59.70587 | -3.68158 | 20655 ft | 247 kts | 334° |
| 2026-04-21 17:47 | 59.72095 | -3.69775 | 20655 ft | 246 kts | 334° |
| 2026-04-21 17:47 | 59.73600 | -3.71389 | 20654 ft | 246 kts | 334° |
| 2026-04-21 17:48 | 59.75104 | -3.73005 | 20650 ft | 246 kts | 334° |
| 2026-04-21 17:48 | 59.76609 | -3.74623 | 20651 ft | 246 kts | 334° |
| 2026-04-21 17:48 | 59.78112 | -3.76240 | 20651 ft | 246 kts | 334° |
| 2026-04-21 17:48 | 59.79611 | -3.77856 | 20651 ft | 245 kts | 334° |
| 2026-04-21 17:49 | 59.81114 | -3.79476 | 20654 ft | 245 kts | 334° |
| 2026-04-21 17:49 | 59.82612 | -3.81093 | 20654 ft | 245 kts | 334° |
| 2026-04-21 17:49 | 59.84111 | -3.82714 | 20651 ft | 245 kts | 335° |
| 2026-04-21 17:49 | 59.85608 | -3.84333 | 20652 ft | 245 kts | 335° |
| 2026-04-21 17:50 | 59.87105 | -3.85954 | 20655 ft | 245 kts | 335° |
| 2026-04-21 17:50 | 59.88599 | -3.87573 | 20655 ft | 245 kts | 334° |
| 2026-04-21 17:50 | 59.90074 | -3.89174 | 20654 ft | 245 kts | 335° |
| 2026-04-21 17:50 | 59.91569 | -3.90798 | 20654 ft | 245 kts | 334° |
| 2026-04-21 17:51 | 59.93063 | -3.92421 | 20654 ft | 245 kts | 334° |
| 2026-04-21 17:51 | 59.94557 | -3.94048 | 20654 ft | 245 kts | 334° |
| 2026-04-21 17:51 | 59.96050 | -3.95676 | 20654 ft | 245 kts | 334° |
| 2026-04-21 17:51 | 59.97545 | -3.97307 | 20637 ft | 245 kts | 335° |
| 2026-04-21 17:52 | 59.99037 | -3.98937 | 20648 ft | 244 kts | 335° |
| 2026-04-21 17:52 | 60.00528 | -4.00571 | 20657 ft | 245 kts | 334° |
| 2026-04-21 17:52 | 60.01995 | -4.02317 | 20658 ft | 246 kts | 332° |
| 2026-04-21 17:52 | 60.03437 | -4.04153 | 20659 ft | 246 kts | 331° |
| 2026-04-21 17:53 | 60.04874 | -4.06015 | 20659 ft | 246 kts | 331° |
| 2026-04-21 17:53 | 60.06313 | -4.07881 | 20659 ft | 246 kts | 331° |
| 2026-04-21 17:53 | 60.07752 | -4.09736 | 20659 ft | 246 kts | 331° |
| 2026-04-21 17:53 | 60.09195 | -4.11589 | 20660 ft | 246 kts | 331° |
| 2026-04-21 17:54 | 60.10640 | -4.13435 | 20662 ft | 246 kts | 332° |
| 2026-04-21 17:54 | 60.12081 | -4.15285 | 20659 ft | 246 kts | 333° |
| 2026-04-21 17:54 | 60.13521 | -4.17123 | 20662 ft | 245 kts | 333° |
| 2026-04-21 17:54 | 60.14963 | -4.18958 | 20663 ft | 245 kts | 333° |
| 2026-04-21 17:55 | 60.16404 | -4.20791 | 20662 ft | 245 kts | 333° |
| 2026-04-21 17:55 | 60.17844 | -4.22626 | 20662 ft | 245 kts | 333° |
| 2026-04-21 17:55 | 60.19282 | -4.24460 | 20662 ft | 245 kts | 333° |
| 2026-04-21 17:55 | 60.20722 | -4.26298 | 20662 ft | 245 kts | 333° |
| 2026-04-21 17:56 | 60.22141 | -4.28114 | 20665 ft | 245 kts | 333° |
| 2026-04-21 17:56 | 60.23578 | -4.29954 | 20665 ft | 245 kts | 333° |
| 2026-04-21 17:56 | 60.25015 | -4.31798 | 20665 ft | 245 kts | 333° |
| 2026-04-21 17:56 | 60.26453 | -4.33644 | 20665 ft | 245 kts | 333° |
| 2026-04-21 17:57 | 60.27888 | -4.35488 | 20664 ft | 245 kts | 333° |
| 2026-04-21 17:57 | 60.29323 | -4.37335 | 20664 ft | 245 kts | 333° |
| 2026-04-21 17:57 | 60.30759 | -4.39185 | 20665 ft | 245 kts | 333° |
| 2026-04-21 17:57 | 60.32194 | -4.41035 | 20664 ft | 245 kts | 333° |
| 2026-04-21 17:58 | 60.33628 | -4.42887 | 20666 ft | 245 kts | 333° |
| 2026-04-21 17:58 | 60.35062 | -4.44740 | 20665 ft | 245 kts | 333° |
| 2026-04-21 17:58 | 60.36498 | -4.46596 | 20665 ft | 245 kts | 333° |
| 2026-04-21 17:58 | 60.37931 | -4.48452 | 20665 ft | 245 kts | 333° |
| 2026-04-21 17:59 | 60.39365 | -4.50319 | 20658 ft | 245 kts | 334° |
| 2026-04-21 17:59 | 60.40793 | -4.52178 | 20662 ft | 244 kts | 334° |
| 2026-04-21 17:59 | 60.42225 | -4.54037 | 20663 ft | 244 kts | 334° |
| 2026-04-21 17:59 | 60.43654 | -4.55892 | 20664 ft | 244 kts | 334° |
| 2026-04-21 18:00 | 60.45082 | -4.57748 | 20664 ft | 244 kts | 334° |
| 2026-04-21 18:00 | 60.46510 | -4.59601 | 20669 ft | 244 kts | 334° |
| 2026-04-21 18:00 | 60.47938 | -4.61462 | 20669 ft | 244 kts | 334° |
| 2026-04-21 18:00 | 60.49365 | -4.63326 | 20670 ft | 244 kts | 334° |
| 2026-04-21 18:01 | 60.50793 | -4.65193 | 20670 ft | 244 kts | 334° |
| 2026-04-21 18:01 | 60.52220 | -4.67063 | 20669 ft | 244 kts | 334° |
| 2026-04-21 18:01 | 60.53645 | -4.68930 | 20668 ft | 244 kts | 334° |
| 2026-04-21 18:01 | 60.55071 | -4.70801 | 20667 ft | 244 kts | 334° |
| 2026-04-21 18:02 | 60.56497 | -4.72673 | 20668 ft | 244 kts | 334° |
| 2026-04-21 18:02 | 60.57903 | -4.74522 | 20670 ft | 244 kts | 334° |
| 2026-04-21 18:02 | 60.59328 | -4.76394 | 20659 ft | 244 kts | 334° |
| 2026-04-21 18:02 | 60.60771 | -4.78295 | 20665 ft | 244 kts | 334° |
| 2026-04-21 18:03 | 60.62195 | -4.80172 | 20668 ft | 244 kts | 334° |
| 2026-04-21 18:03 | 60.63604 | -4.82032 | 20669 ft | 245 kts | 334° |
| 2026-04-21 18:03 | 60.65033 | -4.83921 | 20670 ft | 245 kts | 334° |
| 2026-04-21 18:03 | 60.66462 | -4.85813 | 20650 ft | 245 kts | 334° |
| 2026-04-21 18:04 | 60.67889 | -4.87707 | 20664 ft | 245 kts | 334° |
| 2026-04-21 18:04 | 60.69318 | -4.89602 | 20670 ft | 245 kts | 334° |
| 2026-04-21 18:04 | 60.70745 | -4.91495 | 20672 ft | 245 kts | 334° |
| 2026-04-21 18:04 | 60.72172 | -4.93390 | 20673 ft | 245 kts | 334° |
| 2026-04-21 18:05 | 60.73602 | -4.95290 | 20670 ft | 245 kts | 334° |
| 2026-04-21 18:05 | 60.75030 | -4.97191 | 20675 ft | 245 kts | 334° |
| 2026-04-21 18:05 | 60.76458 | -4.99094 | 20672 ft | 245 kts | 334° |
| 2026-04-21 18:05 | 60.77886 | -5.00999 | 20672 ft | 245 kts | 334° |
| 2026-04-21 18:06 | 60.79316 | -5.02909 | 20678 ft | 245 kts | 334° |
| 2026-04-21 18:06 | 60.80744 | -5.04818 | 20677 ft | 245 kts | 334° |
| 2026-04-21 18:06 | 60.82173 | -5.06730 | 20682 ft | 245 kts | 334° |
| 2026-04-21 18:06 | 60.83603 | -5.08647 | 20676 ft | 245 kts | 334° |
| 2026-04-21 18:07 | 60.85029 | -5.10561 | 20669 ft | 245 kts | 334° |
| 2026-04-21 18:07 | 60.86457 | -5.12479 | 20672 ft | 245 kts | 334° |
| 2026-04-21 18:07 | 60.87885 | -5.14398 | 20673 ft | 245 kts | 334° |
| 2026-04-21 18:07 | 60.89311 | -5.16317 | 20683 ft | 245 kts | 334° |
| 2026-04-21 18:08 | 60.90737 | -5.18239 | 20679 ft | 245 kts | 334° |
| 2026-04-21 18:08 | 60.92164 | -5.20164 | 20679 ft | 245 kts | 334° |
| 2026-04-21 18:08 | 60.93590 | -5.22088 | 20679 ft | 245 kts | 334° |
| 2026-04-21 18:08 | 60.95017 | -5.24018 | 20670 ft | 245 kts | 334° |
| 2026-04-21 18:09 | 60.96442 | -5.25947 | 20673 ft | 245 kts | 334° |
| 2026-04-21 18:09 | 60.97868 | -5.27878 | 20675 ft | 245 kts | 334° |
| 2026-04-21 18:09 | 60.98812 | -5.29158 | 20676 ft | 245 kts | 334° |
| 2026-04-21 18:09 | 61.00722 | -5.31751 | 20677 ft | 246 kts | 334° |
| 2026-04-21 18:10 | 61.02149 | -5.33689 | 20675 ft | 246 kts | 334° |
| 2026-04-21 18:10 | 61.03575 | -5.35630 | 20676 ft | 246 kts | 334° |
| 2026-04-21 18:10 | 61.04983 | -5.37547 | 20677 ft | 246 kts | 334° |
| 2026-04-21 18:10 | 61.06408 | -5.39493 | 20678 ft | 246 kts | 334° |
| 2026-04-21 18:11 | 61.07835 | -5.41439 | 20680 ft | 246 kts | 334° |
| 2026-04-21 18:11 | 61.09262 | -5.43390 | 20679 ft | 246 kts | 334° |
| 2026-04-21 18:11 | 61.10690 | -5.45342 | 20679 ft | 246 kts | 334° |
| 2026-04-21 18:11 | 61.12118 | -5.47299 | 20679 ft | 246 kts | 334° |
| 2026-04-21 18:12 | 61.13545 | -5.49255 | 20677 ft | 246 kts | 334° |
| 2026-04-21 18:12 | 61.14972 | -5.51214 | 20677 ft | 246 kts | 334° |
| 2026-04-21 18:12 | 61.16394 | -5.53169 | 20679 ft | 246 kts | 334° |
| 2026-04-21 18:12 | 61.17825 | -5.55138 | 20677 ft | 246 kts | 334° |
| 2026-04-21 18:13 | 61.19252 | -5.57103 | 20664 ft | 246 kts | 333° |
| 2026-04-21 18:13 | 61.20677 | -5.59078 | 20673 ft | 247 kts | 333° |
| 2026-04-21 18:13 | 61.22108 | -5.61053 | 20661 ft | 247 kts | 332° |
| 2026-04-21 18:13 | 61.23537 | -5.63027 | 20672 ft | 247 kts | 333° |
| 2026-04-21 18:14 | 61.26406 | -5.66992 | 20680 ft | 248 kts | 333° |
| 2026-04-21 18:14 | 61.27843 | -5.68981 | 20681 ft | 248 kts | 333° |
| 2026-04-21 18:14 | 61.29279 | -5.70974 | 20681 ft | 248 kts | 333° |
| 2026-04-21 18:15 | 61.30692 | -5.72943 | 20680 ft | 241 kts | 333° |
| 2026-04-21 18:15 | 61.32077 | -5.74878 | 20597 ft | 241 kts | 333° |
| 2026-04-21 18:15 | 61.33490 | -5.76837 | 20344 ft | 247 kts | 333° |
| 2026-04-21 18:15 | 61.34936 | -5.78840 | 20031 ft | 253 kts | 333° |
| 2026-04-21 18:16 | 61.36422 | -5.80899 | 19663 ft | 258 kts | 332° |
| 2026-04-21 18:16 | 61.37899 | -5.82962 | 19298 ft | 252 kts | 332° |
| 2026-04-21 18:16 | 61.39335 | -5.84983 | 18932 ft | 246 kts | 332° |
| 2026-04-21 18:16 | 61.40742 | -5.86963 | 18519 ft | 241 kts | 332° |
| 2026-04-21 18:17 | 61.42122 | -5.88907 | 18112 ft | 238 kts | 332° |
| 2026-04-21 18:17 | 61.43467 | -5.90798 | 17715 ft | 235 kts | 332° |
| 2026-04-21 18:17 | 61.44814 | -5.92692 | 17317 ft | 232 kts | 332° |
| 2026-04-21 18:17 | 61.46148 | -5.94567 | 16926 ft | 230 kts | 332° |
| 2026-04-21 18:18 | 61.47471 | -5.96428 | 16539 ft | 229 kts | 332° |
| 2026-04-21 18:18 | 61.48787 | -5.98282 | 16157 ft | 227 kts | 331° |
| 2026-04-21 18:18 | 61.50095 | -6.00126 | 15780 ft | 226 kts | 331° |
| 2026-04-21 18:18 | 61.51393 | -6.01984 | 15407 ft | 225 kts | 330° |
| 2026-04-21 18:19 | 61.52672 | -6.03864 | 15036 ft | 224 kts | 330° |
| 2026-04-21 18:19 | 61.53943 | -6.05748 | 14672 ft | 223 kts | 329° |
| 2026-04-21 18:19 | 61.55207 | -6.07626 | 14294 ft | 221 kts | 329° |
| 2026-04-21 18:19 | 61.56456 | -6.09483 | 13914 ft | 219 kts | 329° |
| 2026-04-21 18:20 | 61.57694 | -6.11322 | 13533 ft | 217 kts | 329° |
| 2026-04-21 18:20 | 61.58921 | -6.13143 | 13166 ft | 215 kts | 329° |
| 2026-04-21 18:20 | 61.60139 | -6.14949 | 12799 ft | 213 kts | 329° |
| 2026-04-21 18:20 | 61.61346 | -6.16740 | 12436 ft | 212 kts | 329° |
| 2026-04-21 18:21 | 61.62544 | -6.18517 | 12078 ft | 210 kts | 329° |
| 2026-04-21 18:21 | 61.63736 | -6.20289 | 11721 ft | 209 kts | 329° |
| 2026-04-21 18:21 | 61.64919 | -6.22047 | 11371 ft | 207 kts | 329° |
| 2026-04-21 18:21 | 61.66078 | -6.23771 | 11028 ft | 206 kts | 329° |
| 2026-04-21 18:22 | 61.67244 | -6.25507 | 10682 ft | 205 kts | 328° |
| 2026-04-21 18:22 | 61.68401 | -6.27233 | 10317 ft | 203 kts | 328° |
| 2026-04-21 18:22 | 61.69553 | -6.28950 | 9940 ft | 202 kts | 328° |
| 2026-04-21 18:22 | 61.70695 | -6.30657 | 9568 ft | 201 kts | 328° |
| 2026-04-21 18:23 | 61.71830 | -6.32353 | 9199 ft | 199 kts | 328° |
| 2026-04-21 18:23 | 61.72954 | -6.34035 | 8835 ft | 198 kts | 328° |
| 2026-04-21 18:23 | 61.74071 | -6.35708 | 8476 ft | 196 kts | 328° |
| 2026-04-21 18:23 | 61.75178 | -6.37368 | 8116 ft | 195 kts | 327° |
| 2026-04-21 18:24 | 61.76280 | -6.39020 | 7765 ft | 193 kts | 327° |
| 2026-04-21 18:24 | 61.77371 | -6.40660 | 7420 ft | 192 kts | 327° |
| 2026-04-21 18:24 | 61.78455 | -6.42285 | 7063 ft | 190 kts | 327° |
| 2026-04-21 18:24 | 61.79518 | -6.43886 | 6799 ft | 185 kts | 327° |
| 2026-04-21 18:25 | 61.80553 | -6.45449 | 6540 ft | 181 kts | 327° |
| 2026-04-21 18:25 | 61.81568 | -6.46984 | 6279 ft | 178 kts | 327° |
| 2026-04-21 18:25 | 61.82568 | -6.48493 | 6019 ft | 176 kts | 326° |
| 2026-04-21 18:25 | 61.83572 | -6.50008 | 5764 ft | 178 kts | 326° |
| 2026-04-21 18:26 | 61.84588 | -6.51541 | 5511 ft | 180 kts | 326° |
| 2026-04-21 18:26 | 61.85614 | -6.53089 | 5265 ft | 182 kts | 326° |
| 2026-04-21 18:26 | 61.86631 | -6.54627 | 5029 ft | 182 kts | 326° |
| 2026-04-21 18:26 | 61.87662 | -6.56190 | 4791 ft | 182 kts | 326° |
| 2026-04-21 18:27 | 61.88610 | -6.57904 | 4714 ft | 176 kts | 311° |
| 2026-04-21 18:27 | 61.89229 | -6.60085 | 4694 ft | 170 kts | 298° |
| 2026-04-21 18:27 | 61.89781 | -6.62291 | 4538 ft | 172 kts | 301° |
| 2026-04-21 18:27 | 61.90380 | -6.64552 | 4279 ft | 178 kts | 301° |
| 2026-04-21 18:28 | 61.90987 | -6.66869 | 4024 ft | 181 kts | 301° |
| 2026-04-21 18:28 | 61.91598 | -6.69213 | 3770 ft | 182 kts | 301° |
| 2026-04-21 18:28 | 61.92209 | -6.71573 | 3476 ft | 184 kts | 301° |
| 2026-04-21 18:28 | 61.92834 | -6.73968 | 3167 ft | 186 kts | 299° |
| 2026-04-21 18:29 | 61.93430 | -6.76334 | 3080 ft | 176 kts | 300° |
| 2026-04-21 18:29 | 61.93995 | -6.78568 | 3119 ft | 171 kts | 300° |
| 2026-04-21 18:29 | 61.94570 | -6.80827 | 3360 ft | 175 kts | 300° |
| 2026-04-21 18:29 | 61.95150 | -6.83105 | 3616 ft | 176 kts | 300° |
| 2026-04-21 18:30 | 61.95741 | -6.85422 | 3737 ft | 182 kts | 300° |
| 2026-04-21 18:30 | 61.96345 | -6.87788 | 3755 ft | 182 kts | 300° |
| 2026-04-21 18:30 | 61.96962 | -6.90153 | 3666 ft | 186 kts | 301° |
| 2026-04-21 18:30 | 61.97606 | -6.92577 | 3512 ft | 190 kts | 301° |
| 2026-04-21 18:31 | 61.98035 | -6.94205 | 3421 ft | 190 kts | 302° |
| 2026-04-21 18:31 | 61.98877 | -6.97487 | 3288 ft | 189 kts | 299° |
| 2026-04-21 18:31 | 61.99458 | -6.99918 | 3195 ft | 181 kts | 298° |
| 2026-04-21 18:31 | 61.99999 | -7.02233 | 3144 ft | 166 kts | 297° |
| 2026-04-21 18:32 | 62.00337 | -7.03671 | 3103 ft | 157 kts | 298° |
| 2026-04-21 18:32 | 62.00861 | -7.05753 | 2833 ft | 159 kts | 301° |
| 2026-04-21 18:32 | 62.01406 | -7.07814 | 2569 ft | 161 kts | 301° |
| 2026-04-21 18:32 | 62.01946 | -7.09898 | 2331 ft | 159 kts | 300° |
| 2026-04-21 18:33 | 62.02430 | -7.11885 | 2126 ft | 145 kts | 298° |
| 2026-04-21 18:33 | 62.02860 | -7.13740 | 1883 ft | 133 kts | 297° |
| 2026-04-21 18:33 | 62.03256 | -7.15447 | 1652 ft | 125 kts | 297° |
| 2026-04-21 18:33 | 62.03622 | -7.16965 | 1480 ft | 112 kts | 298° |
| 2026-04-21 18:34 | 62.03978 | -7.18397 | 1270 ft | 113 kts | 300° |
| 2026-04-21 18:34 | 62.04353 | -7.19880 | 1037 ft | 112 kts | 300° |
| 2026-04-21 18:34 | 62.04725 | -7.21302 | 867 ft | 109 kts | 299° |
| 2026-04-21 18:34 | 62.05095 | -7.22701 | 709 ft | 108 kts | 300° |
| 2026-04-21 18:35 | 62.05443 | -7.24097 | 502 ft | 104 kts | 300° |
| 2026-04-21 18:35 | 62.05778 | -7.25389 | 358 ft | 95 kts | 299° |
| 2026-04-21 18:35 | 62.06079 | -7.26589 | 258 ft | 84 kts | 300° |
| 2026-04-21 18:35 | 62.06324 | -7.27571 | 280 ft | 65 kts | 298° |
| 2026-04-21 18:36 | 62.06437 | -7.28034 | 276 ft | 24 kts | 296° |
| 2026-04-21 18:36 | 62.06497 | -7.28154 | 274 ft | 12 kts | 19° |
| 2026-04-21 18:36 | 62.06550 | -7.28105 | 273 ft | 4 kts | 22° |
| 2026-04-21 18:36 | 62.06629 | -7.28090 | 273 ft | 13 kts | 350° |
| 2026-04-21 18:37 | 62.06697 | -7.28154 | 273 ft | 6 kts | 318° |
| 2026-04-21 18:37 | 62.06724 | -7.28151 | 273 ft | 3 kts | 13° |
| 2026-04-21 18:37 | 62.06731 | -7.28126 | 273 ft | 0 kts | 73° |
| 2026-04-21 18:42 | 62.06731 | -7.28127 | 273 ft | 0 kts | 73° |